sensor_id;sensor_type;location;lat;lon;timestamp;temperature;humidity
32322;DHT22;61553;48.994;8.940;2023-04-25T00:00:44;7.80;99.90
32322;DHT22;61553;48.994;8.940;2023-04-25T00:03:10;7.70;99.90
32322;DHT22;61553;48.994;8.940;2023-04-25T00:05:36;7.70;99.90
32322;DHT22;61553;48.994;8.940;2023-04-25T00:08:03;7.70;99.90
32322;DHT22;61553;48.994;8.940;2023-04-25T00:10:29;7.60;99.90
32322;DHT22;61553;48.994;8.940;2023-04-25T00:12:54;7.50;99.90
32322;DHT22;61553;48.994;8.940;2023-04-25T00:15:20;7.60;99.90
32322;DHT22;61553;48.994;8.940;2023-04-25T00:17:47;7.60;99.90
32322;DHT22;61553;48.994;8.940;2023-04-25T00:20:12;7.50;99.90
32322;DHT22;61553;48.994;8.940;2023-04-25T00:22:38;7.40;99.90
32322;DHT22;61553;48.994;8.940;2023-04-25T00:25:05;7.50;99.90
32322;DHT22;61553;48.994;8.940;2023-04-25T00:27:31;7.40;99.90
32322;DHT22;61553;48.994;8.940;2023-04-25T00:29:57;7.40;99.90
32322;DHT22;61553;48.994;8.940;2023-04-25T00:32:23;7.40;99.90
32322;DHT22;61553;48.994;8.940;2023-04-25T00:34:48;7.30;99.90
32322;DHT22;61553;48.994;8.940;2023-04-25T00:37:14;7.40;99.90
32322;DHT22;61553;48.994;8.940;2023-04-25T00:39:40;7.30;99.90
32322;DHT22;61553;48.994;8.940;2023-04-25T00:42:05;7.30;99.90
32322;DHT22;61553;48.994;8.940;2023-04-25T00:44:31;7.30;99.90
32322;DHT22;61553;48.994;8.940;2023-04-25T00:46:58;7.20;99.90
32322;DHT22;61553;48.994;8.940;2023-04-25T00:49:23;7.20;99.90
32322;DHT22;61553;48.994;8.940;2023-04-25T00:51:49;7.10;99.90
32322;DHT22;61553;48.994;8.940;2023-04-25T00:54:15;7.10;99.90
32322;DHT22;61553;48.994;8.940;2023-04-25T00:56:41;7.10;99.90
32322;DHT22;61553;48.994;8.940;2023-04-25T00:59:08;7.20;99.90
32322;DHT22;61553;48.994;8.940;2023-04-25T01:01:35;7.30;99.90
32322;DHT22;61553;48.994;8.940;2023-04-25T01:04:01;7.40;99.90
32322;DHT22;61553;48.994;8.940;2023-04-25T01:06:27;7.40;99.90
32322;DHT22;61553;48.994;8.940;2023-04-25T01:08:53;7.50;99.90
32322;DHT22;61553;48.994;8.940;2023-04-25T01:11:19;7.50;99.90
32322;DHT22;61553;48.994;8.940;2023-04-25T01:13:45;7.60;99.90
32322;DHT22;61553;48.994;8.940;2023-04-25T01:16:11;7.70;99.90
32322;DHT22;61553;48.994;8.940;2023-04-25T01:18:38;7.70;99.90
32322;DHT22;61553;48.994;8.940;2023-04-25T01:21:10;7.80;99.90
32322;DHT22;61553;48.994;8.940;2023-04-25T01:23:37;7.80;99.90
32322;DHT22;61553;48.994;8.940;2023-04-25T01:26:03;7.90;99.90
32322;DHT22;61553;48.994;8.940;2023-04-25T01:28:29;7.90;99.90
32322;DHT22;61553;48.994;8.940;2023-04-25T01:30:56;8.00;99.90
32322;DHT22;61553;48.994;8.940;2023-04-25T01:33:22;8.00;99.90
32322;DHT22;61553;48.994;8.940;2023-04-25T01:35:47;8.00;99.90
32322;DHT22;61553;48.994;8.940;2023-04-25T01:38:14;8.00;99.90
32322;DHT22;61553;48.994;8.940;2023-04-25T01:40:40;8.00;99.90
32322;DHT22;61553;48.994;8.940;2023-04-25T01:43:07;7.90;99.90
32322;DHT22;61553;48.994;8.940;2023-04-25T01:45:37;8.00;99.90
32322;DHT22;61553;48.994;8.940;2023-04-25T01:48:05;7.90;99.90
32322;DHT22;61553;48.994;8.940;2023-04-25T01:50:30;7.90;99.90
32322;DHT22;61553;48.994;8.940;2023-04-25T01:52:56;7.90;99.90
32322;DHT22;61553;48.994;8.940;2023-04-25T01:55:22;7.80;99.90
32322;DHT22;61553;48.994;8.940;2023-04-25T01:57:47;7.80;99.90
32322;DHT22;61553;48.994;8.940;2023-04-25T02:00:13;7.70;99.90
32322;DHT22;61553;48.994;8.940;2023-04-25T02:02:39;7.70;99.90
32322;DHT22;61553;48.994;8.940;2023-04-25T02:05:05;7.70;99.90
32322;DHT22;61553;48.994;8.940;2023-04-25T02:07:31;7.80;99.90
32322;DHT22;61553;48.994;8.940;2023-04-25T02:09:57;7.80;99.90
32322;DHT22;61553;48.994;8.940;2023-04-25T02:12:23;7.80;99.90
32322;DHT22;61553;48.994;8.940;2023-04-25T02:14:48;7.80;99.90
32322;DHT22;61553;48.994;8.940;2023-04-25T02:17:14;7.80;99.90
32322;DHT22;61553;48.994;8.940;2023-04-25T02:19:41;7.80;99.90
32322;DHT22;61553;48.994;8.940;2023-04-25T02:22:06;7.80;99.90
32322;DHT22;61553;48.994;8.940;2023-04-25T02:24:32;7.90;99.90
32322;DHT22;61553;48.994;8.940;2023-04-25T02:26:59;7.90;99.90
32322;DHT22;61553;48.994;8.940;2023-04-25T02:29:24;7.90;99.90
32322;DHT22;61553;48.994;8.940;2023-04-25T02:31:50;7.90;99.90
32322;DHT22;61553;48.994;8.940;2023-04-25T02:34:16;7.90;99.90
32322;DHT22;61553;48.994;8.940;2023-04-25T02:36:41;7.90;99.90
32322;DHT22;61553;48.994;8.940;2023-04-25T02:39:07;7.80;99.90
32322;DHT22;61553;48.994;8.940;2023-04-25T02:41:32;7.80;99.90
32322;DHT22;61553;48.994;8.940;2023-04-25T02:43:58;7.80;99.90
32322;DHT22;61553;48.994;8.940;2023-04-25T02:46:23;7.80;99.90
32322;DHT22;61553;48.994;8.940;2023-04-25T02:48:49;7.80;99.90
32322;DHT22;61553;48.994;8.940;2023-04-25T02:51:15;7.80;99.90
32322;DHT22;61553;48.994;8.940;2023-04-25T02:53:42;7.80;99.90
32322;DHT22;61553;48.994;8.940;2023-04-25T02:56:07;7.80;99.90
32322;DHT22;61553;48.994;8.940;2023-04-25T02:58:33;7.80;99.90
32322;DHT22;61553;48.994;8.940;2023-04-25T03:00:58;7.80;99.90
32322;DHT22;61553;48.994;8.940;2023-04-25T03:03:24;7.70;99.90
32322;DHT22;61553;48.994;8.940;2023-04-25T03:05:50;7.70;99.90
32322;DHT22;61553;48.994;8.940;2023-04-25T03:08:17;7.60;99.90
32322;DHT22;61553;48.994;8.940;2023-04-25T03:10:43;7.80;99.90
32322;DHT22;61553;48.994;8.940;2023-04-25T03:13:09;7.70;99.90
32322;DHT22;61553;48.994;8.940;2023-04-25T03:15:35;7.90;99.90
32322;DHT22;61553;48.994;8.940;2023-04-25T03:18:01;7.90;99.90
32322;DHT22;61553;48.994;8.940;2023-04-25T03:20:27;7.80;99.90
32322;DHT22;61553;48.994;8.940;2023-04-25T03:22:53;7.90;99.90
32322;DHT22;61553;48.994;8.940;2023-04-25T03:25:18;7.90;99.90
32322;DHT22;61553;48.994;8.940;2023-04-25T03:27:44;7.90;99.90
32322;DHT22;61553;48.994;8.940;2023-04-25T03:30:10;7.90;99.90
32322;DHT22;61553;48.994;8.940;2023-04-25T03:32:36;8.00;99.90
32322;DHT22;61553;48.994;8.940;2023-04-25T03:35:02;8.00;99.90
32322;DHT22;61553;48.994;8.940;2023-04-25T03:37:27;8.10;99.90
32322;DHT22;61553;48.994;8.940;2023-04-25T03:39:53;8.10;99.90
32322;DHT22;61553;48.994;8.940;2023-04-25T03:42:19;8.00;99.90
32322;DHT22;61553;48.994;8.940;2023-04-25T03:44:45;8.00;99.90
32322;DHT22;61553;48.994;8.940;2023-04-25T03:47:10;8.10;99.90
32322;DHT22;61553;48.994;8.940;2023-04-25T03:49:36;8.00;99.90
32322;DHT22;61553;48.994;8.940;2023-04-25T03:52:02;8.00;99.90
32322;DHT22;61553;48.994;8.940;2023-04-25T03:54:28;7.80;99.90
32322;DHT22;61553;48.994;8.940;2023-04-25T03:56:54;7.70;99.90
32322;DHT22;61553;48.994;8.940;2023-04-25T03:59:19;7.60;99.90
32322;DHT22;61553;48.994;8.940;2023-04-25T04:01:45;7.40;99.90
32322;DHT22;61553;48.994;8.940;2023-04-25T04:04:10;7.30;99.90
32322;DHT22;61553;48.994;8.940;2023-04-25T04:06:36;7.20;99.90
32322;DHT22;61553;48.994;8.940;2023-04-25T04:09:02;7.20;99.90
32322;DHT22;61553;48.994;8.940;2023-04-25T04:11:28;7.10;99.90
32322;DHT22;61553;48.994;8.940;2023-04-25T04:13:54;7.10;99.90
32322;DHT22;61553;48.994;8.940;2023-04-25T04:16:20;7.10;99.90
32322;DHT22;61553;48.994;8.940;2023-04-25T04:18:46;7.20;99.90
32322;DHT22;61553;48.994;8.940;2023-04-25T04:21:11;7.10;99.90
32322;DHT22;61553;48.994;8.940;2023-04-25T04:23:37;7.10;99.90
32322;DHT22;61553;48.994;8.940;2023-04-25T04:26:03;7.00;99.90
32322;DHT22;61553;48.994;8.940;2023-04-25T04:28:28;6.90;99.90
32322;DHT22;61553;48.994;8.940;2023-04-25T04:30:55;6.90;99.90
32322;DHT22;61553;48.994;8.940;2023-04-25T04:33:20;6.90;99.90
32322;DHT22;61553;48.994;8.940;2023-04-25T04:35:46;6.80;99.90
32322;DHT22;61553;48.994;8.940;2023-04-25T04:38:13;6.90;99.90
32322;DHT22;61553;48.994;8.940;2023-04-25T04:40:41;7.00;99.90
32322;DHT22;61553;48.994;8.940;2023-04-25T04:43:09;7.00;99.90
32322;DHT22;61553;48.994;8.940;2023-04-25T04:45:35;7.10;99.90
32322;DHT22;61553;48.994;8.940;2023-04-25T04:48:02;7.10;99.90
32322;DHT22;61553;48.994;8.940;2023-04-25T04:50:28;7.20;99.90
32322;DHT22;61553;48.994;8.940;2023-04-25T04:52:53;7.20;99.90
32322;DHT22;61553;48.994;8.940;2023-04-25T04:55:20;7.40;99.90
32322;DHT22;61553;48.994;8.940;2023-04-25T04:57:46;7.40;99.90
32322;DHT22;61553;48.994;8.940;2023-04-25T05:00:12;7.40;99.90
32322;DHT22;61553;48.994;8.940;2023-04-25T05:02:38;7.50;99.90
32322;DHT22;61553;48.994;8.940;2023-04-25T05:05:05;7.60;99.90
32322;DHT22;61553;48.994;8.940;2023-04-25T05:07:31;7.70;99.90
32322;DHT22;61553;48.994;8.940;2023-04-25T05:09:56;7.80;99.90
32322;DHT22;61553;48.994;8.940;2023-04-25T05:12:22;7.80;99.90
32322;DHT22;61553;48.994;8.940;2023-04-25T05:14:47;7.90;99.90
32322;DHT22;61553;48.994;8.940;2023-04-25T05:17:13;7.90;99.90
32322;DHT22;61553;48.994;8.940;2023-04-25T05:19:39;7.90;99.90
32322;DHT22;61553;48.994;8.940;2023-04-25T05:22:04;8.00;99.90
32322;DHT22;61553;48.994;8.940;2023-04-25T05:24:30;8.10;99.90
32322;DHT22;61553;48.994;8.940;2023-04-25T05:26:56;8.20;99.90
32322;DHT22;61553;48.994;8.940;2023-04-25T05:29:22;8.20;99.90
32322;DHT22;61553;48.994;8.940;2023-04-25T05:31:47;8.30;99.90
32322;DHT22;61553;48.994;8.940;2023-04-25T05:34:13;8.30;99.90
32322;DHT22;61553;48.994;8.940;2023-04-25T05:36:39;8.30;99.90
32322;DHT22;61553;48.994;8.940;2023-04-25T05:39:05;8.40;99.90
32322;DHT22;61553;48.994;8.940;2023-04-25T05:41:31;8.50;99.90
32322;DHT22;61553;48.994;8.940;2023-04-25T05:43:57;8.50;99.90
32322;DHT22;61553;48.994;8.940;2023-04-25T05:46:22;8.60;99.90
32322;DHT22;61553;48.994;8.940;2023-04-25T05:48:48;8.70;99.90
32322;DHT22;61553;48.994;8.940;2023-04-25T05:51:14;8.90;99.90
32322;DHT22;61553;48.994;8.940;2023-04-25T05:53:39;9.20;99.90
32322;DHT22;61553;48.994;8.940;2023-04-25T05:56:05;9.50;99.90
32322;DHT22;61553;48.994;8.940;2023-04-25T05:58:31;9.80;99.90
32322;DHT22;61553;48.994;8.940;2023-04-25T06:00:56;10.10;99.90
32322;DHT22;61553;48.994;8.940;2023-04-25T06:03:22;10.40;99.90
32322;DHT22;61553;48.994;8.940;2023-04-25T06:05:47;10.70;99.90
32322;DHT22;61553;48.994;8.940;2023-04-25T06:08:13;10.90;99.90
32322;DHT22;61553;48.994;8.940;2023-04-25T06:10:39;11.10;99.90
32322;DHT22;61553;48.994;8.940;2023-04-25T06:13:05;11.20;99.90
32322;DHT22;61553;48.994;8.940;2023-04-25T06:15:31;11.50;99.90
32322;DHT22;61553;48.994;8.940;2023-04-25T06:17:58;12.00;99.90
32322;DHT22;61553;48.994;8.940;2023-04-25T06:20:23;12.40;99.90
32322;DHT22;61553;48.994;8.940;2023-04-25T06:22:53;12.70;99.90
32322;DHT22;61553;48.994;8.940;2023-04-25T06:25:19;13.30;99.90
32322;DHT22;61553;48.994;8.940;2023-04-25T06:27:45;14.60;99.90
32322;DHT22;61553;48.994;8.940;2023-04-25T06:30:11;16.80;97.20
32322;DHT22;61553;48.994;8.940;2023-04-25T06:32:40;17.90;90.50
32322;DHT22;61553;48.994;8.940;2023-04-25T06:35:06;16.70;90.50
32322;DHT22;61553;48.994;8.940;2023-04-25T06:37:32;15.90;91.60
32322;DHT22;61553;48.994;8.940;2023-04-25T06:39:57;15.30;92.40
32322;DHT22;61553;48.994;8.940;2023-04-25T06:42:23;14.60;93.20
32322;DHT22;61553;48.994;8.940;2023-04-25T06:44:48;14.00;94.50
32322;DHT22;61553;48.994;8.940;2023-04-25T06:47:14;13.50;95.70
32322;DHT22;61553;48.994;8.940;2023-04-25T06:49:40;12.90;97.80
32322;DHT22;61553;48.994;8.940;2023-04-25T06:52:06;12.40;99.90
32322;DHT22;61553;48.994;8.940;2023-04-25T06:54:32;12.30;99.90
32322;DHT22;61553;48.994;8.940;2023-04-25T06:56:58;12.20;99.90
32322;DHT22;61553;48.994;8.940;2023-04-25T06:59:23;12.10;99.90
32322;DHT22;61553;48.994;8.940;2023-04-25T07:01:49;12.10;99.90
32322;DHT22;61553;48.994;8.940;2023-04-25T07:04:15;12.00;99.90
32322;DHT22;61553;48.994;8.940;2023-04-25T07:06:40;11.90;99.90
32322;DHT22;61553;48.994;8.940;2023-04-25T07:09:09;11.70;99.90
32322;DHT22;61553;48.994;8.940;2023-04-25T07:11:36;11.50;99.90
32322;DHT22;61553;48.994;8.940;2023-04-25T07:14:02;11.50;99.90
32322;DHT22;61553;48.994;8.940;2023-04-25T07:16:27;11.30;99.90
32322;DHT22;61553;48.994;8.940;2023-04-25T07:18:53;11.00;99.90
32322;DHT22;61553;48.994;8.940;2023-04-25T07:21:19;10.90;99.90
32322;DHT22;61553;48.994;8.940;2023-04-25T07:23:45;10.70;99.90
32322;DHT22;61553;48.994;8.940;2023-04-25T07:26:10;10.50;99.90
32322;DHT22;61553;48.994;8.940;2023-04-25T07:28:36;10.60;99.90
32322;DHT22;61553;48.994;8.940;2023-04-25T07:31:01;10.60;99.90
32322;DHT22;61553;48.994;8.940;2023-04-25T07:33:28;10.60;99.90
32322;DHT22;61553;48.994;8.940;2023-04-25T07:35:53;10.70;99.90
32322;DHT22;61553;48.994;8.940;2023-04-25T07:38:19;10.70;99.90
32322;DHT22;61553;48.994;8.940;2023-04-25T07:40:45;10.90;99.90
32322;DHT22;61553;48.994;8.940;2023-04-25T07:43:10;10.90;99.90
32322;DHT22;61553;48.994;8.940;2023-04-25T07:45:39;11.10;99.90
32322;DHT22;61553;48.994;8.940;2023-04-25T07:48:05;11.20;99.90
32322;DHT22;61553;48.994;8.940;2023-04-25T07:50:31;11.20;99.90
32322;DHT22;61553;48.994;8.940;2023-04-25T07:52:56;11.40;99.90
32322;DHT22;61553;48.994;8.940;2023-04-25T07:55:22;11.50;99.90
32322;DHT22;61553;48.994;8.940;2023-04-25T07:57:47;11.60;99.90
32322;DHT22;61553;48.994;8.940;2023-04-25T08:00:13;11.70;99.90
32322;DHT22;61553;48.994;8.940;2023-04-25T08:02:40;11.80;99.90
32322;DHT22;61553;48.994;8.940;2023-04-25T08:05:06;11.90;99.90
32322;DHT22;61553;48.994;8.940;2023-04-25T08:07:33;11.80;99.90
32322;DHT22;61553;48.994;8.940;2023-04-25T08:09:59;11.70;99.90
32322;DHT22;61553;48.994;8.940;2023-04-25T08:12:25;11.60;99.90
32322;DHT22;61553;48.994;8.940;2023-04-25T08:14:51;11.50;99.90
32322;DHT22;61553;48.994;8.940;2023-04-25T08:17:16;11.40;99.90
32322;DHT22;61553;48.994;8.940;2023-04-25T08:19:42;11.20;99.90
32322;DHT22;61553;48.994;8.940;2023-04-25T08:22:08;11.10;99.90
32322;DHT22;61553;48.994;8.940;2023-04-25T08:24:34;11.00;99.90
32322;DHT22;61553;48.994;8.940;2023-04-25T08:26:59;10.90;99.90
32322;DHT22;61553;48.994;8.940;2023-04-25T08:29:26;10.90;99.90
32322;DHT22;61553;48.994;8.940;2023-04-25T08:31:51;10.70;99.90
32322;DHT22;61553;48.994;8.940;2023-04-25T08:34:18;10.70;99.90
32322;DHT22;61553;48.994;8.940;2023-04-25T08:36:45;10.70;99.90
32322;DHT22;61553;48.994;8.940;2023-04-25T08:39:11;10.70;99.90
32322;DHT22;61553;48.994;8.940;2023-04-25T08:41:37;10.70;99.90
32322;DHT22;61553;48.994;8.940;2023-04-25T08:44:03;10.70;99.90
32322;DHT22;61553;48.994;8.940;2023-04-25T08:46:30;10.70;99.90
32322;DHT22;61553;48.994;8.940;2023-04-25T08:49:00;10.70;99.90
32322;DHT22;61553;48.994;8.940;2023-04-25T08:51:27;10.90;99.90
32322;DHT22;61553;48.994;8.940;2023-04-25T08:53:53;11.10;99.90
32322;DHT22;61553;48.994;8.940;2023-04-25T08:56:19;11.20;99.90
32322;DHT22;61553;48.994;8.940;2023-04-25T08:58:50;11.20;99.90
32322;DHT22;61553;48.994;8.940;2023-04-25T09:01:17;11.40;99.90
32322;DHT22;61553;48.994;8.940;2023-04-25T09:03:44;11.30;99.90
32322;DHT22;61553;48.994;8.940;2023-04-25T09:06:13;11.40;99.90
32322;DHT22;61553;48.994;8.940;2023-04-25T09:08:39;11.40;99.90
32322;DHT22;61553;48.994;8.940;2023-04-25T09:11:06;11.20;99.90
32322;DHT22;61553;48.994;8.940;2023-04-25T09:13:32;11.10;99.90
32322;DHT22;61553;48.994;8.940;2023-04-25T09:15:58;10.80;99.90
32322;DHT22;61553;48.994;8.940;2023-04-25T09:18:24;10.50;99.90
32322;DHT22;61553;48.994;8.940;2023-04-25T09:20:55;10.40;99.90
32322;DHT22;61553;48.994;8.940;2023-04-25T09:23:21;10.20;99.90
32322;DHT22;61553;48.994;8.940;2023-04-25T09:25:48;10.10;99.90
32322;DHT22;61553;48.994;8.940;2023-04-25T09:28:14;10.00;99.90
32322;DHT22;61553;48.994;8.940;2023-04-25T09:30:41;9.90;99.90
32322;DHT22;61553;48.994;8.940;2023-04-25T09:33:11;9.80;99.90
32322;DHT22;61553;48.994;8.940;2023-04-25T09:35:38;9.70;99.90
32322;DHT22;61553;48.994;8.940;2023-04-25T09:38:08;9.80;99.90
32322;DHT22;61553;48.994;8.940;2023-04-25T09:40:45;9.80;99.90
32322;DHT22;61553;48.994;8.940;2023-04-25T09:43:19;9.80;99.90
32322;DHT22;61553;48.994;8.940;2023-04-25T09:45:46;9.70;99.90
32322;DHT22;61553;48.994;8.940;2023-04-25T09:48:19;9.60;99.90
32322;DHT22;61553;48.994;8.940;2023-04-25T09:51:10;9.60;99.90
32322;DHT22;61553;48.994;8.940;2023-04-25T09:53:44;9.50;99.90
32322;DHT22;61553;48.994;8.940;2023-04-25T09:56:12;9.20;99.90
32322;DHT22;61553;48.994;8.940;2023-04-25T09:58:39;9.10;99.90
32322;DHT22;61553;48.994;8.940;2023-04-25T10:01:09;9.20;99.90
32322;DHT22;61553;48.994;8.940;2023-04-25T10:03:37;9.10;99.90
32322;DHT22;61553;48.994;8.940;2023-04-25T10:06:12;9.20;99.90
32322;DHT22;61553;48.994;8.940;2023-04-25T10:08:39;9.20;99.90
32322;DHT22;61553;48.994;8.940;2023-04-25T10:11:08;9.20;99.90
32322;DHT22;61553;48.994;8.940;2023-04-25T10:13:35;9.30;99.90
32322;DHT22;61553;48.994;8.940;2023-04-25T10:16:05;9.30;99.90
32322;DHT22;61553;48.994;8.940;2023-04-25T10:18:31;9.30;99.90
32322;DHT22;61553;48.994;8.940;2023-04-25T10:21:07;9.30;99.90
32322;DHT22;61553;48.994;8.940;2023-04-25T10:23:32;9.40;99.90
32322;DHT22;61553;48.994;8.940;2023-04-25T10:26:02;9.50;99.90
32322;DHT22;61553;48.994;8.940;2023-04-25T10:28:27;9.50;99.90
32322;DHT22;61553;48.994;8.940;2023-04-25T10:31:00;9.40;99.90
32322;DHT22;61553;48.994;8.940;2023-04-25T10:33:36;9.30;99.90
32322;DHT22;61553;48.994;8.940;2023-04-25T10:36:13;9.40;99.90
32322;DHT22;61553;48.994;8.940;2023-04-25T10:38:39;9.60;99.90
32322;DHT22;61553;48.994;8.940;2023-04-25T10:41:07;9.70;99.90
32322;DHT22;61553;48.994;8.940;2023-04-25T10:43:42;9.70;99.90
32322;DHT22;61553;48.994;8.940;2023-04-25T10:46:21;9.80;99.90
32322;DHT22;61553;48.994;8.940;2023-04-25T10:48:50;9.90;99.90
32322;DHT22;61553;48.994;8.940;2023-04-25T10:53:46;10.00;99.90
32322;DHT22;61553;48.994;8.940;2023-04-25T10:56:17;10.00;99.90
32322;DHT22;61553;48.994;8.940;2023-04-25T10:58:45;10.10;99.90
32322;DHT22;61553;48.994;8.940;2023-04-25T11:01:12;10.20;99.90
32322;DHT22;61553;48.994;8.940;2023-04-25T11:03:41;10.40;99.90
32322;DHT22;61553;48.994;8.940;2023-04-25T11:08:50;11.10;99.90
32322;DHT22;61553;48.994;8.940;2023-04-25T11:11:19;11.40;99.90
32322;DHT22;61553;48.994;8.940;2023-04-25T11:13:49;11.50;99.90
32322;DHT22;61553;48.994;8.940;2023-04-25T11:16:15;11.50;99.90
32322;DHT22;61553;48.994;8.940;2023-04-25T11:18:42;11.20;99.90
32322;DHT22;61553;48.994;8.940;2023-04-25T11:21:08;11.30;99.90
32322;DHT22;61553;48.994;8.940;2023-04-25T11:23:34;11.30;99.90
32322;DHT22;61553;48.994;8.940;2023-04-25T11:26:00;11.30;99.90
32322;DHT22;61553;48.994;8.940;2023-04-25T11:28:27;11.10;99.90
32322;DHT22;61553;48.994;8.940;2023-04-25T11:30:52;10.80;99.90
32322;DHT22;61553;48.994;8.940;2023-04-25T11:33:23;10.70;99.90
32322;DHT22;61553;48.994;8.940;2023-04-25T11:35:49;10.70;99.90
32322;DHT22;61553;48.994;8.940;2023-04-25T11:38:15;10.50;99.90
32322;DHT22;61553;48.994;8.940;2023-04-25T11:40:40;10.40;99.90
32322;DHT22;61553;48.994;8.940;2023-04-25T11:43:06;10.30;99.90
32322;DHT22;61553;48.994;8.940;2023-04-25T11:45:32;10.20;99.90
32322;DHT22;61553;48.994;8.940;2023-04-25T11:47:58;10.30;99.90
32322;DHT22;61553;48.994;8.940;2023-04-25T11:50:23;10.30;99.90
32322;DHT22;61553;48.994;8.940;2023-04-25T11:52:49;10.60;99.90
32322;DHT22;61553;48.994;8.940;2023-04-25T11:55:19;10.90;99.90
32322;DHT22;61553;48.994;8.940;2023-04-25T11:57:48;11.10;99.90
32322;DHT22;61553;48.994;8.940;2023-04-25T12:00:20;11.10;99.90
32322;DHT22;61553;48.994;8.940;2023-04-25T12:02:51;11.30;99.90
32322;DHT22;61553;48.994;8.940;2023-04-25T12:05:17;11.40;99.90
32322;DHT22;61553;48.994;8.940;2023-04-25T12:07:43;11.60;99.90
32322;DHT22;61553;48.994;8.940;2023-04-25T12:10:14;11.90;99.90
32322;DHT22;61553;48.994;8.940;2023-04-25T12:12:47;11.80;99.90
32322;DHT22;61553;48.994;8.940;2023-04-25T12:17:48;11.50;99.90
32322;DHT22;61553;48.994;8.940;2023-04-25T12:20:16;11.30;99.90
32322;DHT22;61553;48.994;8.940;2023-04-25T12:22:44;11.30;99.90
32322;DHT22;61553;48.994;8.940;2023-04-25T12:28:29;11.20;99.90
32322;DHT22;61553;48.994;8.940;2023-04-25T12:31:06;10.90;99.90
32322;DHT22;61553;48.994;8.940;2023-04-25T12:33:37;10.70;99.90
32322;DHT22;61553;48.994;8.940;2023-04-25T12:36:05;10.70;99.90
32322;DHT22;61553;48.994;8.940;2023-04-25T12:38:40;10.50;99.90
32322;DHT22;61553;48.994;8.940;2023-04-25T12:41:06;10.60;99.90
32322;DHT22;61553;48.994;8.940;2023-04-25T12:43:32;10.60;99.90
32322;DHT22;61553;48.994;8.940;2023-04-25T12:45:59;10.90;99.90
32322;DHT22;61553;48.994;8.940;2023-04-25T12:48:24;11.00;99.90
32322;DHT22;61553;48.994;8.940;2023-04-25T12:50:50;11.10;99.90
32322;DHT22;61553;48.994;8.940;2023-04-25T12:53:22;11.10;99.90
32322;DHT22;61553;48.994;8.940;2023-04-25T12:55:48;11.10;99.90
32322;DHT22;61553;48.994;8.940;2023-04-25T12:58:15;10.90;99.90
32322;DHT22;61553;48.994;8.940;2023-04-25T13:00:40;11.10;99.90
32322;DHT22;61553;48.994;8.940;2023-04-25T13:03:07;11.40;99.90
32322;DHT22;61553;48.994;8.940;2023-04-25T13:05:33;12.10;99.90
32322;DHT22;61553;48.994;8.940;2023-04-25T13:07:59;12.50;99.90
32322;DHT22;61553;48.994;8.940;2023-04-25T13:10:24;13.10;99.90
32322;DHT22;61553;48.994;8.940;2023-04-25T13:12:50;13.40;99.90
32322;DHT22;61553;48.994;8.940;2023-04-25T13:15:16;13.50;99.90
32322;DHT22;61553;48.994;8.940;2023-04-25T13:17:42;13.40;99.90
32322;DHT22;61553;48.994;8.940;2023-04-25T13:20:08;13.20;99.90
32322;DHT22;61553;48.994;8.940;2023-04-25T13:22:38;13.40;99.90
32322;DHT22;61553;48.994;8.940;2023-04-25T13:25:05;13.50;99.90
32322;DHT22;61553;48.994;8.940;2023-04-25T13:27:32;13.50;99.90
32322;DHT22;61553;48.994;8.940;2023-04-25T13:30:00;13.60;99.90
32322;DHT22;61553;48.994;8.940;2023-04-25T13:32:26;13.30;99.90
32322;DHT22;61553;48.994;8.940;2023-04-25T13:34:53;13.00;99.90
32322;DHT22;61553;48.994;8.940;2023-04-25T13:37:19;12.90;99.90
32322;DHT22;61553;48.994;8.940;2023-04-25T13:39:44;12.50;99.90
32322;DHT22;61553;48.994;8.940;2023-04-25T13:42:10;12.50;99.90
32322;DHT22;61553;48.994;8.940;2023-04-25T13:44:36;12.50;99.90
32322;DHT22;61553;48.994;8.940;2023-04-25T13:47:02;12.30;99.90
32322;DHT22;61553;48.994;8.940;2023-04-25T13:49:28;11.90;99.90
32322;DHT22;61553;48.994;8.940;2023-04-25T13:51:53;11.70;99.90
32322;DHT22;61553;48.994;8.940;2023-04-25T13:54:19;11.40;99.90
32322;DHT22;61553;48.994;8.940;2023-04-25T13:56:45;11.20;99.90
32322;DHT22;61553;48.994;8.940;2023-04-25T13:59:10;11.00;99.90
32322;DHT22;61553;48.994;8.940;2023-04-25T14:01:36;10.90;99.90
32322;DHT22;61553;48.994;8.940;2023-04-25T14:04:02;10.70;99.90
32322;DHT22;61553;48.994;8.940;2023-04-25T14:06:31;10.60;99.90
32322;DHT22;61553;48.994;8.940;2023-04-25T14:08:57;10.70;99.90
32322;DHT22;61553;48.994;8.940;2023-04-25T14:11:23;11.20;99.90
32322;DHT22;61553;48.994;8.940;2023-04-25T14:13:48;11.60;99.90
32322;DHT22;61553;48.994;8.940;2023-04-25T14:16:15;12.00;99.90
32322;DHT22;61553;48.994;8.940;2023-04-25T14:18:41;12.40;99.90
32322;DHT22;61553;48.994;8.940;2023-04-25T14:21:06;12.90;99.90
32322;DHT22;61553;48.994;8.940;2023-04-25T14:23:32;13.00;99.90
32322;DHT22;61553;48.994;8.940;2023-04-25T14:25:58;13.40;99.90
32322;DHT22;61553;48.994;8.940;2023-04-25T14:28:23;13.70;99.90
32322;DHT22;61553;48.994;8.940;2023-04-25T14:30:49;13.70;99.90
32322;DHT22;61553;48.994;8.940;2023-04-25T14:33:14;13.80;99.90
32322;DHT22;61553;48.994;8.940;2023-04-25T14:35:40;13.70;99.90
32322;DHT22;61553;48.994;8.940;2023-04-25T14:38:06;13.40;99.90
32322;DHT22;61553;48.994;8.940;2023-04-25T14:40:33;13.30;99.90
32322;DHT22;61553;48.994;8.940;2023-04-25T14:42:58;13.20;99.90
32322;DHT22;61553;48.994;8.940;2023-04-25T14:45:24;12.90;99.90
32322;DHT22;61553;48.994;8.940;2023-04-25T14:47:50;12.90;99.90
32322;DHT22;61553;48.994;8.940;2023-04-25T14:50:15;12.90;99.90
32322;DHT22;61553;48.994;8.940;2023-04-25T14:52:41;13.10;99.90
32322;DHT22;61553;48.994;8.940;2023-04-25T14:55:07;13.40;99.90
32322;DHT22;61553;48.994;8.940;2023-04-25T14:57:33;13.70;99.90
32322;DHT22;61553;48.994;8.940;2023-04-25T15:00:00;13.60;99.90
32322;DHT22;61553;48.994;8.940;2023-04-25T15:02:26;13.50;99.90
32322;DHT22;61553;48.994;8.940;2023-04-25T15:04:52;13.60;99.90
32322;DHT22;61553;48.994;8.940;2023-04-25T15:07:18;13.50;99.90
32322;DHT22;61553;48.994;8.940;2023-04-25T15:09:44;13.50;99.90
32322;DHT22;61553;48.994;8.940;2023-04-25T15:12:10;13.40;99.90
32322;DHT22;61553;48.994;8.940;2023-04-25T15:14:36;13.30;99.90
32322;DHT22;61553;48.994;8.940;2023-04-25T15:17:01;13.00;99.90
32322;DHT22;61553;48.994;8.940;2023-04-25T15:19:27;13.10;99.90
32322;DHT22;61553;48.994;8.940;2023-04-25T15:21:53;13.00;99.90
32322;DHT22;61553;48.994;8.940;2023-04-25T15:24:19;13.00;99.90
32322;DHT22;61553;48.994;8.940;2023-04-25T15:26:45;13.10;99.90
32322;DHT22;61553;48.994;8.940;2023-04-25T15:29:11;12.90;99.90
32322;DHT22;61553;48.994;8.940;2023-04-25T15:31:37;13.10;99.90
32322;DHT22;61553;48.994;8.940;2023-04-25T15:34:03;12.90;99.90
32322;DHT22;61553;48.994;8.940;2023-04-25T15:36:28;12.70;99.90
32322;DHT22;61553;48.994;8.940;2023-04-25T15:38:54;12.60;99.90
32322;DHT22;61553;48.994;8.940;2023-04-25T15:41:21;12.50;99.90
32322;DHT22;61553;48.994;8.940;2023-04-25T15:43:47;12.40;99.90